createdAt,value
2022-11-27T00:01:52.075Z,102633.28
2022-11-27T00:04:21.536Z,102633.28
2022-11-27T00:06:51.268Z,102622.66
2022-11-27T00:09:20.993Z,102615.33
2022-11-27T00:11:50.820Z,102615.33
2022-11-27T00:14:20.287Z,102605.54
2022-11-27T00:16:50.309Z,102606.98
2022-11-27T00:19:20.116Z,102598.21
2022-11-27T00:21:49.891Z,102599.41
2022-11-27T00:24:19.654Z,102595.67
2022-11-27T00:26:49.762Z,102595.67
2022-11-27T00:29:19.480Z,102584.91
2022-11-27T00:31:49.233Z,102584.12
2022-11-27T00:34:18.776Z,102578.63
2022-11-27T00:36:48.779Z,102584.11
2022-11-27T00:39:18.876Z,102579.22
2022-11-27T00:41:48.925Z,102579.05
2022-11-27T00:44:18.465Z,102580.82
2022-11-27T00:46:48.614Z,102569.79
2022-11-27T00:49:18.535Z,102564.65
2022-11-27T00:51:48.288Z,102564.65
2022-11-27T00:54:21.767Z,102566.34
2022-11-27T00:56:49.513Z,102561.22
2022-11-27T00:59:19.264Z,102566.09
2022-11-27T01:01:49.142Z,102561.66
2022-11-27T01:04:19.420Z,102564.08
2022-11-27T01:06:49.158Z,102564.08
2022-11-27T01:09:18.931Z,102556.13
2022-11-27T01:11:48.653Z,102556.92
2022-11-27T01:14:19.537Z,102559.04
2022-11-27T01:16:49.378Z,102557.30
2022-11-27T01:19:19.286Z,102554.32
2022-11-27T01:21:49.198Z,102550.48
2022-11-27T01:24:18.969Z,102544.35
2022-11-27T01:26:48.728Z,102547.57
2022-11-27T01:29:18.522Z,102539.81
2022-11-27T01:31:48.375Z,102538.45
2022-11-27T01:34:19.933Z,102531.17
2022-11-27T01:36:49.741Z,102538.73
2022-11-27T01:39:21.335Z,102539.56
2022-11-27T01:41:51.671Z,102530.91
2022-11-27T01:44:30.324Z,102533.83
2022-11-27T01:47:03.343Z,102522.48
2022-11-27T01:49:38.730Z,102525.91
2022-11-27T01:52:18.176Z,102524.55
2022-11-27T01:54:53.688Z,102524.91
2022-11-27T01:57:28.563Z,102525.91
2022-11-27T02:00:00.765Z,102525.69
2022-11-27T02:02:30.433Z,102502.20
2022-11-27T02:05:00.548Z,102502.20
2022-11-27T02:07:30.308Z,102495.93
2022-11-27T02:10:00.445Z,102474.28
2022-11-27T02:12:35.613Z,102472.57
2022-11-27T02:15:13.565Z,102459.19
2022-11-27T02:18:05.676Z,102456.85
2022-11-27T02:21:00.615Z,102454.73
2022-11-27T02:23:52.451Z,102447.08
2022-11-27T02:26:39.926Z,102444.23
2022-11-27T02:29:12.487Z,102436.58
2022-11-27T02:31:48.460Z,102424.05
2022-11-27T02:34:49.665Z,102424.05
2022-11-27T02:37:45.907Z,102413.92
2022-11-27T02:40:18.378Z,102417.41
2022-11-27T02:42:59.864Z,102414.06
2022-11-27T02:48:13.139Z,102422.54
2022-11-27T02:50:45.960Z,102416.55
2022-11-27T02:53:21.592Z,102435.98
2022-11-27T02:55:54.274Z,102432.16
2022-11-27T02:58:26.871Z,102429.22
2022-11-27T03:00:58.290Z,102431.44
2022-11-27T03:03:31.059Z,102429.15
2022-11-27T03:06:03.877Z,102423.47
2022-11-27T03:08:39.274Z,102424.64
2022-11-27T03:11:12.132Z,102413.45
2022-11-27T03:13:48.021Z,102407.05
2022-11-27T03:16:38.118Z,102414.83
2022-11-27T03:19:29.050Z,102410.75
2022-11-27T03:22:01.250Z,102416.41
2022-11-27T03:24:33.250Z,102407.84
2022-11-27T03:27:04.038Z,102412.55
2022-11-27T03:29:42.386Z,102398.57
2022-11-27T03:32:14.425Z,102399.07
2022-11-27T03:34:44.562Z,102393.65
2022-11-27T03:37:14.622Z,102388.96
2022-11-27T03:39:44.997Z,102399.70
2022-11-27T03:42:33.978Z,102396.33
2022-11-27T03:45:24.572Z,102396.83
2022-11-27T03:48:09.047Z,102397.76
2022-11-27T03:50:56.497Z,102402.36
2022-11-27T03:53:59.354Z,102389.42
2022-11-27T03:56:46.543Z,102387.73
2022-11-27T03:59:28.155Z,102387.73
2022-11-27T04:01:57.974Z,102383.34
2022-11-27T04:04:27.842Z,102385.75
2022-11-27T04:06:57.583Z,102377.52
2022-11-27T04:09:27.325Z,102375.25
2022-11-27T04:11:57.111Z,102375.64
2022-11-27T04:14:26.831Z,102380.17
2022-11-27T04:16:56.880Z,102371.83
2022-11-27T04:19:26.615Z,102369.13
2022-11-27T04:21:56.587Z,102362.17
2022-11-27T04:24:26.196Z,102362.00
2022-11-27T04:26:56.222Z,102360.07
2022-11-27T04:29:26.240Z,102374.53
2022-11-27T04:31:56.013Z,102373.68
2022-11-27T04:34:25.726Z,102378.31
2022-11-27T04:36:55.579Z,102383.94
2022-11-27T04:39:25.523Z,102372.86
2022-11-27T04:41:55.571Z,102378.34
2022-11-27T04:44:25.281Z,102376.28
2022-11-27T04:46:55.132Z,102379.42
2022-11-27T04:49:25.149Z,102382.23
2022-11-27T04:51:54.912Z,102385.76
2022-11-27T04:54:24.629Z,102376.98
2022-11-27T04:56:54.376Z,102373.85
2022-11-27T04:59:24.493Z,102372.41
2022-11-27T05:01:54.214Z,102357.86
2022-11-27T05:04:24.176Z,102367.77
2022-11-27T05:06:53.998Z,102357.98
2022-11-27T05:09:23.703Z,102350.12
2022-11-27T05:11:53.468Z,102344.70
2022-11-27T05:14:24.710Z,102348.41
2022-11-27T05:16:57.345Z,102348.62
2022-11-27T05:19:30.109Z,102344.20
2022-11-27T05:22:00.218Z,102326.78
2022-11-27T05:24:30.783Z,102326.78
2022-11-27T05:27:00.689Z,102327.41
2022-11-27T05:29:30.526Z,102320.70
2022-11-27T05:32:00.289Z,102330.18
2022-11-27T05:34:30.351Z,102320.20
2022-11-27T05:37:00.165Z,102310.22
2022-11-27T05:39:29.908Z,102315.47
2022-11-27T05:41:59.750Z,102321.63
2022-11-27T05:44:29.628Z,102312.58
2022-11-27T05:46:59.438Z,102312.86
2022-11-27T05:49:29.198Z,102307.17
2022-11-27T05:51:58.944Z,102310.20
2022-11-27T05:54:28.789Z,102309.56
2022-11-27T05:56:58.828Z,102297.63
2022-11-27T05:59:28.570Z,102307.30
2022-11-27T06:01:58.424Z,102300.23
2022-11-27T06:04:28.468Z,102300.04
2022-11-27T06:06:58.500Z,102292.05
2022-11-27T06:09:28.248Z,102291.40
2022-11-27T06:11:58.072Z,102283.75
2022-11-27T06:14:27.558Z,102287.34
2022-11-27T06:16:57.698Z,102287.99
2022-11-27T06:19:27.419Z,102286.00
2022-11-27T06:21:57.144Z,102276.51
2022-11-27T06:24:27.031Z,102273.30
2022-11-27T06:26:56.762Z,102282.38
2022-11-27T06:29:26.807Z,102274.14
2022-11-27T06:31:56.673Z,102261.00
2022-11-27T06:34:26.437Z,102271.04
2022-11-27T06:36:56.197Z,102259.75
2022-11-27T06:39:25.968Z,102265.06
2022-11-27T06:41:55.680Z,102265.77
2022-11-27T06:44:25.498Z,102269.88
2022-11-27T06:46:54.949Z,102275.59
2022-11-27T06:49:24.734Z,102269.23
2022-11-27T06:51:54.507Z,102279.81
2022-11-27T06:54:24.375Z,102273.89
2022-11-27T06:56:54.398Z,102262.97
2022-11-27T06:59:24.174Z,102261.05
2022-11-27T07:01:54.338Z,102256.69
2022-11-27T07:04:23.992Z,102257.14
2022-11-27T07:06:55.571Z,102256.19
2022-11-27T07:09:25.318Z,102256.33
2022-11-27T07:11:55.072Z,102260.20
2022-11-27T07:14:25.209Z,102256.48
2022-11-27T07:16:55.092Z,102251.06
2022-11-27T07:19:24.889Z,102244.34
2022-11-27T07:21:54.926Z,102250.01
2022-11-27T07:24:25.151Z,102239.92
2022-11-27T07:26:55.194Z,102229.89
2022-11-27T07:29:25.109Z,102230.69
2022-11-27T07:31:54.945Z,102228.82
2022-11-27T07:34:25.113Z,102227.11
2022-11-27T07:36:55.207Z,102228.69
2022-11-27T07:39:46.324Z,102232.15
2022-11-27T07:41:57.408Z,102221.05
2022-11-27T07:44:28.522Z,102219.84
2022-11-27T07:46:58.265Z,102216.39
2022-11-27T07:49:28.285Z,102212.41
2022-11-27T07:51:58.334Z,102212.78
2022-11-27T07:54:28.370Z,102214.41
2022-11-27T07:56:58.404Z,102207.55
2022-11-27T07:59:28.437Z,102205.44
2022-11-27T08:01:58.244Z,102197.92
2022-11-27T08:04:28.514Z,102197.92
2022-11-27T08:06:58.579Z,102188.50
2022-11-27T08:09:30.660Z,102186.86
2022-11-27T08:12:00.419Z,102178.41
2022-11-27T08:14:30.646Z,102186.73
2022-11-27T08:17:00.435Z,102188.17
2022-11-27T08:19:30.699Z,102176.88
2022-11-27T08:22:00.727Z,102181.26
2022-11-27T08:24:30.796Z,102176.61
2022-11-27T08:27:00.727Z,102178.97
2022-11-27T08:29:33.936Z,102173.13
2022-11-27T08:32:02.321Z,102167.69
2022-11-27T08:34:32.424Z,102171.58
2022-11-27T08:37:02.166Z,102171.84
2022-11-27T08:39:32.212Z,102160.34
2022-11-27T08:42:01.935Z,102161.85
2022-11-27T08:44:31.962Z,102160.33
2022-11-27T08:47:01.702Z,102160.27
2022-11-27T08:49:31.790Z,102157.02
2022-11-27T08:52:01.269Z,102148.04
2022-11-27T08:54:30.718Z,102154.23
2022-11-27T08:57:00.464Z,102164.58
2022-11-27T08:59:29.940Z,102134.48
2022-11-27T09:01:59.732Z,102154.91
2022-11-27T09:04:29.913Z,102152.89
2022-11-27T09:06:59.755Z,102156.15
2022-11-27T09:09:29.782Z,102156.50
2022-11-27T09:11:59.588Z,102157.05
2022-11-27T09:14:29.690Z,102150.80
2022-11-27T09:16:59.774Z,102154.13
2022-11-27T09:19:29.538Z,102144.36
2022-11-27T09:21:59.457Z,102149.63
2022-11-27T09:24:29.179Z,102151.97
2022-11-27T09:26:58.894Z,102151.81
2022-11-27T09:29:28.924Z,102151.50
2022-11-27T09:31:59.035Z,102151.88
2022-11-27T09:34:30.491Z,102146.72
2022-11-27T09:37:00.337Z,102159.36
2022-11-27T09:39:32.575Z,102159.36
2022-11-27T09:42:05.955Z,102153.59
2022-11-27T09:44:50.739Z,102161.27
2022-11-27T09:47:23.481Z,102161.06
2022-11-27T09:50:01.365Z,102154.67
2022-11-27T09:52:55.184Z,102150.41
2022-11-27T09:55:41.570Z,102157.97
2022-11-27T09:58:20.942Z,102152.30
2022-11-27T10:00:51.045Z,102150.69
2022-11-27T10:03:24.198Z,102155.25
2022-11-27T10:06:31.407Z,102132.11
2022-11-27T10:09:29.115Z,102132.11
2022-11-27T10:12:07.809Z,102131.69
2022-11-27T10:14:46.131Z,102126.20
2022-11-27T10:17:22.044Z,102125.09
2022-11-27T10:20:00.539Z,102117.58
2022-11-27T10:22:33.695Z,102118.25
2022-11-27T10:25:21.041Z,102112.44
2022-11-27T10:28:13.493Z,102101.77
2022-11-27T10:30:48.950Z,102090.48
2022-11-27T10:33:21.449Z,102082.33
2022-11-27T10:35:52.540Z,102078.31
2022-11-27T10:38:26.488Z,102077.84
2022-11-27T10:41:09.830Z,102073.39
2022-11-27T10:43:39.388Z,102073.20
2022-11-27T10:46:21.603Z,102064.78
2022-11-27T10:48:51.701Z,102069.11
2022-11-27T10:51:27.477Z,102058.50
2022-11-27T10:53:59.436Z,102063.45
2022-11-27T10:56:37.607Z,102063.45
2022-11-27T10:59:32.896Z,102057.84
2022-11-27T11:01:59.888Z,102050.05
2022-11-27T11:04:37.945Z,102043.50
2022-11-27T11:07:03.734Z,102043.52
2022-11-27T11:09:35.720Z,102046.38
2022-11-27T11:12:11.276Z,102041.96
2022-11-27T11:14:43.109Z,102032.88
2022-11-27T11:17:19.301Z,102032.38
2022-11-27T11:19:49.013Z,102024.91
2022-11-27T11:22:19.411Z,102010.94
2022-11-27T11:24:51.982Z,102004.40
2022-11-27T11:27:24.114Z,102006.41
2022-11-27T11:30:01.833Z,102004.11
2022-11-27T11:32:40.005Z,102002.35
2022-11-27T11:35:13.050Z,102005.25
2022-11-27T11:37:47.477Z,101996.23
2022-11-27T11:40:25.065Z,101997.02
2022-11-27T11:43:02.918Z,101993.27
2022-11-27T11:45:34.425Z,101987.67
2022-11-27T11:48:23.677Z,101981.78
2022-11-27T11:51:08.331Z,101984.59
2022-11-27T11:53:40.709Z,101979.36
2022-11-27T11:56:38.595Z,101984.77
2022-11-27T11:59:25.889Z,101980.27
2022-11-27T12:02:17.845Z,101976.48
2022-11-27T12:05:24.617Z,101968.16
2022-11-27T12:08:00.276Z,101958.39
2022-11-27T12:10:36.029Z,101952.05
2022-11-27T12:13:33.997Z,101938.52
2022-11-27T12:16:27.433Z,101932.97
2022-11-27T12:19:18.247Z,101912.94
2022-11-27T12:22:02.919Z,101912.09
2022-11-27T12:24:44.289Z,101895.00
2022-11-27T12:27:49.935Z,101895.00
2022-11-27T12:30:28.855Z,101881.45
2022-11-27T12:33:16.497Z,101871.70
2022-11-27T12:35:55.168Z,101863.50
2022-11-27T12:38:43.080Z,101865.91
2022-11-27T12:41:30.805Z,101872.59
2022-11-27T12:44:01.261Z,101874.91
2022-11-27T12:46:51.962Z,101872.94
2022-11-27T12:49:36.648Z,101883.63
2022-11-27T12:52:42.353Z,101879.04
2022-11-27T12:55:20.385Z,101875.64
2022-11-27T12:58:05.046Z,101873.77
2022-11-27T13:00:37.827Z,101872.38
2022-11-27T13:03:16.211Z,101868.85
2022-11-27T13:05:49.000Z,101861.68
2022-11-27T13:08:27.603Z,101856.41
2022-11-27T13:11:06.251Z,101848.27
2022-11-27T13:13:53.996Z,101831.88
2022-11-27T13:16:38.503Z,101832.86
2022-11-27T13:19:33.680Z,101833.03
2022-11-27T13:22:09.353Z,101826.95
2022-11-27T13:24:39.635Z,101797.55
2022-11-27T13:27:15.353Z,101793.67
2022-11-27T13:29:50.399Z,101798.63
2022-11-27T13:32:26.365Z,101804.34
2022-11-27T13:34:59.185Z,101810.11
2022-11-27T13:37:41.460Z,101820.16
2022-11-27T13:40:23.367Z,101811.53
2022-11-27T13:42:56.350Z,101802.73
2022-11-27T13:45:29.232Z,101789.50
2022-11-27T13:48:01.931Z,101786.94
2022-11-27T13:50:31.833Z,101778.08
2022-11-27T13:53:04.721Z,101777.41
2022-11-27T13:55:39.911Z,101775.22
2022-11-27T13:58:10.808Z,101778.42
2022-11-27T14:00:43.893Z,101783.34
2022-11-27T14:03:25.568Z,101783.17
2022-11-27T14:05:56.234Z,101780.62
2022-11-27T14:08:34.307Z,101775.90
2022-11-27T14:11:13.204Z,101779.24
2022-11-27T14:13:48.966Z,101772.13
2022-11-27T14:16:35.583Z,101761.27
2022-11-27T14:19:08.690Z,101762.63
2022-11-27T14:21:44.048Z,101759.37
2022-11-27T14:24:39.823Z,101756.17
2022-11-27T14:27:21.174Z,101744.45
2022-11-27T14:29:52.246Z,101738.69
2022-11-27T14:32:22.866Z,101738.83
2022-11-27T14:34:52.605Z,101745.28
2022-11-27T14:37:27.784Z,101735.31
2022-11-27T14:39:57.599Z,101731.04
2022-11-27T14:42:32.970Z,101724.73
2022-11-27T14:45:07.112Z,101723.72
2022-11-27T14:47:38.674Z,101717.44
2022-11-27T14:50:11.552Z,101717.44
2022-11-27T14:52:43.166Z,101716.45
2022-11-27T14:55:16.962Z,101712.50
2022-11-27T14:57:49.946Z,101706.41
2022-11-27T15:00:24.238Z,101700.44
2022-11-27T15:02:55.066Z,101694.72
2022-11-27T15:05:28.017Z,101685.88
2022-11-27T15:07:59.575Z,101684.87
2022-11-27T15:10:37.520Z,101685.91
2022-11-27T15:13:10.080Z,101687.39
2022-11-27T15:15:47.380Z,101682.28
2022-11-27T15:18:20.294Z,101686.02
2022-11-27T15:20:50.671Z,101686.89
2022-11-27T15:23:25.170Z,101684.69
2022-11-27T15:26:15.953Z,101683.29
2022-11-27T15:28:46.818Z,101678.34
2022-11-27T15:31:37.853Z,101677.36
2022-11-27T15:34:16.273Z,101673.62
2022-11-27T15:37:02.686Z,101660.55
2022-11-27T15:39:51.525Z,101652.42
2022-11-27T15:42:22.270Z,101658.02
2022-11-27T15:44:54.705Z,101650.37
2022-11-27T15:47:30.870Z,101646.30
2022-11-27T15:49:59.636Z,101646.30
2022-11-27T15:52:29.707Z,101637.80
2022-11-27T15:54:59.491Z,101632.70
2022-11-27T15:57:29.254Z,101633.06
2022-11-27T15:59:59.264Z,101629.13
2022-11-27T16:02:30.251Z,101632.20
2022-11-27T16:05:00.319Z,101631.54
2022-11-27T16:07:31.276Z,101626.42
2022-11-27T16:10:01.105Z,101628.62
2022-11-27T16:12:30.824Z,101625.23
2022-11-27T16:15:00.562Z,101623.37
2022-11-27T16:17:30.360Z,101621.16
2022-11-27T16:20:00.117Z,101622.19
2022-11-27T16:22:29.632Z,101615.23
2022-11-27T16:24:59.350Z,101606.89
2022-11-27T16:27:29.089Z,101611.66
2022-11-27T16:30:00.016Z,101598.59
2022-11-27T16:32:29.484Z,101590.59
2022-11-27T16:34:59.627Z,101585.35
2022-11-27T16:37:29.416Z,101589.25
2022-11-27T16:39:59.322Z,101579.74
2022-11-27T16:42:30.100Z,101578.72
2022-11-27T16:44:59.836Z,101582.10
2022-11-27T16:47:33.803Z,101581.27
2022-11-27T16:50:03.217Z,101576.86
2022-11-27T16:52:34.695Z,101560.88
2022-11-27T16:55:04.794Z,101560.41
2022-11-27T16:57:34.685Z,101555.63
2022-11-27T17:00:05.792Z,101553.59
2022-11-27T17:02:35.674Z,101554.62
2022-11-27T17:05:07.747Z,101544.06
2022-11-27T17:07:37.600Z,101529.46
2022-11-27T17:10:09.479Z,101533.39
2022-11-27T17:12:39.282Z,101528.62
2022-11-27T17:15:10.536Z,101532.52
2022-11-27T17:17:41.248Z,101530.34
2022-11-27T17:20:12.211Z,101524.05
2022-11-27T17:22:42.312Z,101525.92
2022-11-27T17:25:12.255Z,101520.30
2022-11-27T17:27:42.562Z,101523.52
2022-11-27T17:30:12.645Z,101519.09
2022-11-27T17:32:42.735Z,101509.59
2022-11-27T17:35:12.412Z,101515.67
2022-11-27T17:37:43.582Z,101515.02
2022-11-27T17:40:15.910Z,101515.02
2022-11-27T17:42:45.641Z,101517.42
2022-11-27T17:45:15.083Z,101510.59
2022-11-27T17:47:44.824Z,101512.69
2022-11-27T17:50:15.870Z,101508.08
2022-11-27T17:52:45.742Z,101509.77
2022-11-27T17:55:15.604Z,101505.54
2022-11-27T17:57:45.372Z,101511.65
2022-11-27T18:00:16.749Z,101509.80
2022-11-27T18:02:46.913Z,101509.64
2022-11-27T18:05:16.447Z,101506.23
2022-11-27T18:07:46.621Z,101498.08
2022-11-27T18:10:20.241Z,101495.01
2022-11-27T18:12:50.344Z,101492.29
2022-11-27T18:15:20.324Z,101487.87
2022-11-27T18:17:50.586Z,101478.56
2022-11-27T18:20:20.292Z,101466.66
2022-11-27T18:22:50.453Z,101466.66
2022-11-27T18:25:19.952Z,101466.87
2022-11-27T18:27:49.707Z,101461.44
2022-11-27T18:30:19.738Z,101457.17
2022-11-27T18:32:49.549Z,101445.31
2022-11-27T18:35:19.052Z,101445.31
2022-11-27T18:37:48.797Z,101447.02
2022-11-27T18:40:18.682Z,101438.84
2022-11-27T18:42:48.455Z,101427.83
2022-11-27T18:45:32.300Z,101429.33
2022-11-27T18:47:50.124Z,101428.88
2022-11-27T18:50:19.847Z,101425.64
2022-11-27T18:52:50.430Z,101425.97
2022-11-27T18:55:19.871Z,101420.03
2022-11-27T18:57:49.700Z,101419.52
2022-11-27T19:00:19.884Z,101414.73
2022-11-27T19:02:49.777Z,101414.75
2022-11-27T19:05:19.511Z,101408.19
2022-11-27T19:07:50.473Z,101408.19
2022-11-27T19:10:21.449Z,101416.98
2022-11-27T19:12:50.963Z,101410.52
2022-11-27T19:15:20.518Z,101407.83
2022-11-27T19:17:50.252Z,101406.44
2022-11-27T19:20:20.050Z,101399.98
2022-11-27T19:22:49.786Z,101397.13
2022-11-27T19:25:19.680Z,101391.70
2022-11-27T19:27:49.938Z,101388.31
2022-11-27T19:30:19.890Z,101394.74
2022-11-27T19:32:49.673Z,101391.17
2022-11-27T19:35:20.916Z,101390.52
2022-11-27T19:37:51.015Z,101389.15
2022-11-27T19:40:21.714Z,101388.82
2022-11-27T19:42:54.588Z,101388.82
2022-11-27T19:45:25.712Z,101381.72
2022-11-27T19:47:55.224Z,101378.84
2022-11-27T19:50:25.711Z,101364.39
2022-11-27T19:52:55.773Z,101364.39
2022-11-27T19:55:25.475Z,101363.23
2022-11-27T19:57:55.209Z,101359.52
2022-11-27T20:00:25.017Z,101348.80
2022-11-27T20:02:54.809Z,101352.84
2022-11-27T20:05:24.639Z,101341.48
2022-11-27T20:07:55.729Z,101341.48
2022-11-27T20:10:25.497Z,101342.69
2022-11-27T20:12:55.232Z,101333.88
2022-11-27T20:15:25.052Z,101333.16
2022-11-27T20:17:56.138Z,101327.90
2022-11-27T20:20:30.149Z,101316.88
2022-11-27T20:22:58.286Z,101316.05
2022-11-27T20:25:28.358Z,101304.89
2022-11-27T20:27:58.378Z,101311.47
2022-11-27T20:30:28.117Z,101299.26
2022-11-27T20:33:04.458Z,101296.56
2022-11-27T20:35:31.201Z,101294.38
2022-11-27T20:38:01.035Z,101288.23
2022-11-27T20:40:30.728Z,101283.30
2022-11-27T20:43:00.824Z,101284.33
2022-11-27T20:45:30.682Z,101287.53
2022-11-27T20:48:00.706Z,101287.38
2022-11-27T20:50:30.595Z,101286.70
2022-11-27T20:53:00.845Z,101276.38
2022-11-27T20:55:31.047Z,101277.74
2022-11-27T20:58:02.052Z,101280.10
2022-11-27T21:00:32.097Z,101267.43
2022-11-27T21:03:02.066Z,101267.43
2022-11-27T21:05:31.806Z,101270.10
2022-11-27T21:08:01.986Z,101247.26
2022-11-27T21:10:31.822Z,101259.59
2022-11-27T21:13:01.638Z,101262.66
2022-11-27T21:15:31.365Z,101260.13
2022-11-27T21:18:01.144Z,101247.44
2022-11-27T21:20:31.286Z,101245.70
2022-11-27T21:23:01.026Z,101238.39
2022-11-27T21:25:30.878Z,101237.84
2022-11-27T21:28:00.616Z,101229.25
2022-11-27T21:30:30.494Z,101220.15
2022-11-27T21:33:00.310Z,101222.80
2022-11-27T21:35:32.137Z,101214.95
2022-11-27T21:38:01.852Z,101214.95
2022-11-27T21:40:32.636Z,101213.57
2022-11-27T21:43:02.775Z,101220.36
2022-11-27T21:45:32.843Z,101182.66
2022-11-27T21:48:02.656Z,101182.66
2022-11-27T21:50:32.437Z,101205.48
2022-11-27T21:53:02.576Z,101195.14
2022-11-27T21:55:32.875Z,101200.03
2022-11-27T21:58:02.945Z,101201.57
2022-11-27T22:00:32.697Z,101198.83
2022-11-27T22:03:02.736Z,101191.86
2022-11-27T22:05:32.499Z,101187.09
2022-11-27T22:08:02.398Z,101189.51
2022-11-27T22:10:32.270Z,101177.52
2022-11-27T22:13:02.018Z,101169.23
2022-11-27T22:15:31.772Z,101163.13
2022-11-27T22:18:01.796Z,101163.72
2022-11-27T22:20:31.839Z,101159.06
2022-11-27T22:23:01.574Z,101155.91
2022-11-27T22:25:32.336Z,101155.91
2022-11-27T22:28:02.702Z,101148.58
2022-11-27T22:30:33.272Z,101150.77
2022-11-27T22:33:03.169Z,101137.05
2022-11-27T22:35:32.898Z,101132.98
2022-11-27T22:38:02.636Z,101131.69
2022-11-27T22:40:32.145Z,101131.95
2022-11-27T22:43:01.882Z,101145.02
2022-11-27T22:45:31.733Z,101127.84
2022-11-27T22:48:01.340Z,101128.30
2022-11-27T22:50:31.243Z,101122.59
2022-11-27T22:53:00.966Z,101136.08
2022-11-27T22:55:31.006Z,101126.72
2022-11-27T22:58:01.078Z,101127.61
2022-11-27T23:00:30.896Z,101136.92
2022-11-27T23:03:00.736Z,101109.57
2022-11-27T23:05:30.812Z,101109.57
2022-11-27T23:08:00.596Z,101116.28
2022-11-27T23:10:30.531Z,101114.87
2022-11-27T23:13:00.582Z,101105.70
2022-11-27T23:15:30.417Z,101104.75
2022-11-27T23:18:00.155Z,101100.21
2022-11-27T23:20:29.892Z,101094.45
2022-11-27T23:22:59.690Z,101090.66
2022-11-27T23:25:30.879Z,101089.69
2022-11-27T23:28:00.732Z,101087.23
2022-11-27T23:30:30.314Z,101086.26
2022-11-27T23:33:00.034Z,101085.55
2022-11-27T23:35:30.252Z,101079.20
2022-11-27T23:37:59.986Z,101075.89
2022-11-27T23:40:29.707Z,101083.85
2022-11-27T23:42:59.510Z,101080.38
2022-11-27T23:45:29.166Z,101071.05
2022-11-27T23:47:58.908Z,101076.05
2022-11-27T23:50:28.677Z,101065.30
2022-11-27T23:52:58.422Z,101071.57
2022-11-27T23:55:28.150Z,101073.32
2022-11-27T23:57:57.875Z,101073.25
